Time;durP1;ratioP1;P1;durP2;ratioP2;P2;SDS_P1;SDS_P2;PMS_P1;PMS_P2;Temp;Humidity;BMP_temperature;BMP_pressure;BME280_temperature;BME280_humidity;BME280_pressure;Samples;Min_cycle;Max_cycle;Signal;HPM_P1;HPM_P2
2022/07/23 00:00:59;;;;;;;3.33;1.63;;;17.30;99.90;;;;;;5032270;28;20271;-55
2022/07/23 00:03:27;;;;;;;3.03;1.60;;;17.30;99.90;;;;;;5032599;28;20233;-54
2022/07/23 00:05:55;;;;;;;3.20;1.60;;;17.20;99.90;;;;;;5033182;28;20323;-55
2022/07/23 00:08:24;;;;;;;3.53;1.60;;;17.30;99.90;;;;;;5043241;28;20321;-55
2022/07/23 00:10:52;;;;;;;5.57;1.70;;;17.30;99.90;;;;;;5044516;28;20243;-55
2022/07/23 00:13:20;;;;;;;4.43;1.70;;;17.20;99.90;;;;;;5052666;28;20229;-55
2022/07/23 00:15:48;;;;;;;3.40;1.50;;;17.20;99.90;;;;;;5048573;28;20724;-55
2022/07/23 00:18:17;;;;;;;4.90;2.00;;;17.20;99.90;;;;;;5032431;28;20732;-55
2022/07/23 00:20:45;;;;;;;4.50;1.50;;;17.20;99.90;;;;;;5032765;28;20597;-54
2022/07/23 00:23:13;;;;;;;3.30;1.40;;;17.20;99.90;;;;;;5032780;28;20272;-55
2022/07/23 00:25:41;;;;;;;3.43;1.70;;;17.20;99.90;;;;;;5034850;28;20239;-55
2022/07/23 00:28:10;;;;;;;6.40;2.03;;;17.20;99.90;;;;;;5013182;28;20613;-55
2022/07/23 00:30:38;;;;;;;4.83;2.03;;;17.20;99.90;;;;;;5012246;28;20672;-55
2022/07/23 00:33:08;;;;;;;6.27;1.80;;;17.20;99.90;;;;;;5023387;28;20248;-56
2022/07/23 00:35:41;;;;;;;2.90;1.67;;;17.20;99.90;;;;;;5032097;28;20240;-55
2022/07/23 00:38:10;;;;;;;3.07;1.53;;;17.20;99.90;;;;;;5036442;28;20216;-55
2022/07/23 00:40:39;;;;;;;2.80;1.80;;;17.20;99.90;;;;;;5042082;28;20300;-55
2022/07/23 00:43:08;;;;;;;4.33;1.67;;;17.20;99.90;;;;;;5032229;28;20236;-55
2022/07/23 00:45:40;;;;;;;4.17;2.03;;;17.20;99.90;;;;;;5032288;28;20276;-55
2022/07/23 00:48:09;;;;;;;4.67;1.70;;;17.10;99.90;;;;;;5027215;28;20226;-55
2022/07/23 00:50:38;;;;;;;3.47;1.40;;;17.10;99.90;;;;;;5035956;28;20578;-55
2022/07/23 00:53:08;;;;;;;4.80;1.60;;;17.10;99.90;;;;;;5035819;28;20269;-55
2022/07/23 00:55:36;;;;;;;3.17;1.60;;;17.10;99.90;;;;;;5035598;28;20240;-55
2022/07/23 00:58:06;;;;;;;5.60;1.70;;;17.10;99.90;;;;;;5035853;28;20689;-55
2022/07/23 01:00:34;;;;;;;4.63;1.60;;;17.20;99.90;;;;;;5034032;28;20236;-55
2022/07/23 01:03:02;;;;;;;3.07;1.80;;;17.10;99.90;;;;;;5036068;28;20281;-55
2022/07/23 01:05:30;;;;;;;3.87;1.60;;;17.10;99.90;;;;;;5034117;28;20594;-55
2022/07/23 01:08:00;;;;;;;4.23;1.70;;;17.10;99.90;;;;;;5042804;28;20262;-55
2022/07/23 01:10:34;;;;;;;2.50;1.70;;;17.10;99.90;;;;;;5046409;28;20275;-55
2022/07/23 01:13:05;;;;;;;3.53;1.50;;;17.00;99.90;;;;;;5035681;28;20221;-55
2022/07/23 01:15:35;;;;;;;2.87;1.87;;;17.00;99.90;;;;;;5035362;28;20225;-55
2022/07/23 01:18:04;;;;;;;2.70;1.63;;;17.00;99.90;;;;;;5035450;28;20316;-55
2022/07/23 01:20:34;;;;;;;2.93;1.60;;;17.10;99.90;;;;;;5034182;28;20273;-55
2022/07/23 01:23:03;;;;;;;4.33;1.60;;;17.10;99.90;;;;;;5035352;28;20220;-55
2022/07/23 01:25:32;;;;;;;3.33;1.60;;;17.10;99.90;;;;;;5050372;28;20750;-55
2022/07/23 01:28:03;;;;;;;2.63;1.80;;;17.10;99.90;;;;;;5034844;28;20264;-55
2022/07/23 01:30:31;;;;;;;5.83;1.90;;;17.10;99.90;;;;;;5033402;28;20657;-55
2022/07/23 01:33:01;;;;;;;4.80;1.80;;;17.10;99.90;;;;;;5033794;28;20233;-55
2022/07/23 01:35:29;;;;;;;4.80;2.03;;;17.00;99.90;;;;;;5033609;28;20231;-55
2022/07/23 01:38:03;;;;;;;3.10;1.70;;;17.00;99.90;;;;;;5041333;28;20687;-55
2022/07/23 01:40:31;;;;;;;4.30;2.40;;;17.10;99.90;;;;;;5045184;28;20684;-55
2022/07/23 01:42:59;;;;;;;3.13;1.80;;;17.00;99.90;;;;;;5053575;28;20227;-55
2022/07/23 01:45:29;;;;;;;3.80;2.33;;;17.00;99.90;;;;;;5051757;28;20650;-55
2022/07/23 01:47:58;;;;;;;4.93;2.23;;;17.00;99.90;;;;;;5033420;28;20243;-55
2022/07/23 01:50:26;;;;;;;4.80;1.90;;;17.00;99.90;;;;;;5034896;28;20229;-55
2022/07/23 01:53:22;;;;;;;4.80;2.03;;;17.00;99.90;;;;;;5034775;28;20233;-55
2022/07/23 01:55:50;;;;;;;5.03;2.27;;;17.00;99.90;;;;;;5033180;28;20220;-55
2022/07/23 01:58:18;;;;;;;3.53;2.00;;;16.90;99.90;;;;;;5033147;28;20224;-55
2022/07/23 02:00:46;;;;;;;5.43;2.17;;;16.90;99.90;;;;;;5049240;28;20267;-55
2022/07/23 02:03:14;;;;;;;4.03;2.17;;;16.90;99.90;;;;;;5050096;28;20640;-55
2022/07/23 02:05:43;;;;;;;5.50;2.30;;;16.90;99.90;;;;;;5034497;28;20232;-55
2022/07/23 02:08:11;;;;;;;5.83;2.23;;;16.90;99.90;;;;;;5058819;28;20223;-55
2022/07/23 02:10:40;;;;;;;4.57;2.10;;;16.90;99.90;;;;;;5044662;28;20228;-55
2022/07/23 02:13:08;;;;;;;5.40;2.23;;;16.90;99.90;;;;;;5042824;28;20324;-55
2022/07/23 02:15:37;;;;;;;3.07;2.07;;;16.90;99.90;;;;;;5034384;28;20728;-55
2022/07/23 02:18:05;;;;;;;2.60;2.00;;;16.80;99.90;;;;;;5034205;28;20313;-55
2022/07/23 02:20:33;;;;;;;2.57;1.97;;;16.80;99.90;;;;;;5032936;28;20333;-54
2022/07/23 02:23:01;;;;;;;4.60;2.20;;;16.80;99.90;;;;;;5034334;28;20728;-55
2022/07/23 02:25:30;;;;;;;4.13;2.00;;;16.80;99.90;;;;;;5032724;28;20257;-55
2022/07/23 02:28:03;;;;;;;5.23;2.47;;;16.80;99.90;;;;;;5035354;28;20256;-55
2022/07/23 02:30:32;;;;;;;5.13;2.20;;;16.80;99.90;;;;;;5032404;28;20253;-55
2022/07/23 02:33:01;;;;;;;5.00;2.30;;;16.70;99.90;;;;;;5032439;28;20225;-55
2022/07/23 02:35:29;;;;;;;3.37;2.00;;;16.70;99.90;;;;;;5032623;28;20225;-54
2022/07/23 02:38:00;;;;;;;5.83;2.63;;;16.70;99.90;;;;;;5040103;28;20228;-55
2022/07/23 02:40:29;;;;;;;4.70;2.10;;;16.70;99.90;;;;;;5044054;28;20674;-55
2022/07/23 02:42:57;;;;;;;4.00;2.33;;;16.60;99.90;;;;;;5052440;28;20247;-55
2022/07/23 02:45:27;;;;;;;4.47;2.10;;;16.60;99.90;;;;;;5051004;28;20265;-55
2022/07/23 02:47:55;;;;;;;2.83;2.30;;;16.60;99.90;;;;;;5032306;28;20287;-56
2022/07/23 02:50:24;;;;;;;4.37;2.40;;;16.50;99.90;;;;;;5033848;28;20223;-55
2022/07/23 02:52:55;;;;;;;2.73;2.17;;;16.50;99.90;;;;;;5032220;28;20722;-54
2022/07/23 02:55:25;;;;;;;3.17;1.90;;;16.50;99.90;;;;;;5042523;28;20227;-55
2022/07/23 02:57:53;;;;;;;4.87;2.10;;;16.50;99.90;;;;;;5032145;28;20229;-55
2022/07/23 03:00:21;;;;;;;5.13;2.60;;;16.50;99.90;;;;;;5033155;28;20669;-55
2022/07/23 03:02:51;;;;;;;2.87;1.87;;;16.40;99.90;;;;;;5032282;28;20323;-55
2022/07/23 03:05:19;;;;;;;3.83;2.07;;;16.40;99.90;;;;;;5032195;28;20380;-55
2022/07/23 03:07:47;;;;;;;4.03;1.80;;;16.40;99.90;;;;;;5033568;28;20232;-55
2022/07/23 03:10:15;;;;;;;4.50;2.27;;;16.40;99.90;;;;;;5043156;28;20273;-55
2022/07/23 03:12:45;;;;;;;2.93;2.07;;;16.40;99.90;;;;;;5051782;28;20223;-54
2022/07/23 03:15:13;;;;;;;4.27;2.10;;;16.40;99.90;;;;;;5053122;28;20212;-55
2022/07/23 03:17:42;;;;;;;3.53;2.47;;;16.40;99.90;;;;;;5028273;28;20232;-55
2022/07/23 03:20:11;;;;;;;3.93;2.50;;;16.30;99.90;;;;;;5013465;28;20265;-54
2022/07/23 03:22:39;;;;;;;5.20;2.13;;;16.30;99.90;;;;;;5012011;28;20315;-55
2022/07/23 03:25:10;;;;;;;4.83;2.50;;;16.40;99.90;;;;;;5030806;28;20255;-55
2022/07/23 03:27:38;;;;;;;3.10;2.20;;;16.30;99.90;;;;;;5031466;28;20225;-55
2022/07/23 03:30:08;;;;;;;4.03;2.63;;;16.30;99.90;;;;;;5033110;28;20613;-55
2022/07/23 03:32:36;;;;;;;5.17;2.50;;;16.40;99.90;;;;;;5047752;28;20240;-55
2022/07/23 03:35:05;;;;;;;4.97;2.10;;;16.40;99.90;;;;;;5033018;28;20299;-55
2022/07/23 03:37:37;;;;;;;3.83;2.13;;;16.40;99.90;;;;;;5031524;28;20254;-55
2022/07/23 03:40:07;;;;;;;2.87;2.30;;;16.40;99.90;;;;;;5031578;28;20227;-55
2022/07/23 03:42:36;;;;;;;3.93;2.47;;;16.40;99.90;;;;;;5047970;28;20631;-55
2022/07/23 03:45:06;;;;;;;4.53;2.53;;;16.40;99.90;;;;;;5048039;28;20672;-55
2022/07/23 03:47:35;;;;;;;4.97;2.43;;;16.40;99.90;;;;;;5032809;28;20755;-55
2022/07/23 03:50:04;;;;;;;4.13;2.50;;;16.30;99.90;;;;;;5031688;28;20233;-55
2022/07/23 03:52:33;;;;;;;5.30;2.83;;;16.30;99.90;;;;;;5045243;28;20323;-55
2022/07/23 03:55:02;;;;;;;4.37;2.80;;;16.30;99.90;;;;;;5032632;28;20612;-54
2022/07/23 03:57:31;;;;;;;5.10;2.73;;;16.20;99.90;;;;;;5047652;28;20228;-54
2022/07/23 03:59:59;;;;;;;6.73;2.90;;;16.30;99.90;;;;;;5032690;28;20220;-55
2022/07/23 04:02:27;;;;;;;3.90;2.60;;;16.30;99.90;;;;;;5049705;28;20341;-55
2022/07/23 04:04:56;;;;;;;2.83;2.57;;;16.30;99.90;;;;;;5051187;28;20277;-55
2022/07/23 04:07:24;;;;;;;3.43;2.37;;;16.30;99.90;;;;;;5044411;28;20592;-55
2022/07/23 04:09:52;;;;;;;4.07;2.57;;;16.30;99.90;;;;;;5054475;28;20656;-55
2022/07/23 04:12:22;;;;;;;2.73;2.10;;;16.40;99.90;;;;;;5050353;28;20314;-55
2022/07/23 04:14:50;;;;;;;2.67;2.20;;;16.40;99.90;;;;;;5051094;28;20224;-55
2022/07/23 04:17:18;;;;;;;6.00;2.30;;;16.40;99.90;;;;;;5052663;28;20732;-55
2022/07/23 04:19:46;;;;;;;2.30;1.90;;;16.50;99.90;;;;;;5050947;28;20227;-55
2022/07/23 04:22:18;;;;;;;3.00;2.10;;;16.50;99.90;;;;;;5049656;28;20684;-54
2022/07/23 04:24:47;;;;;;;3.47;2.23;;;16.50;99.90;;;;;;5035044;28;20237;-54
2022/07/23 04:27:16;;;;;;;2.10;2.00;;;16.50;99.90;;;;;;5051774;28;20244;-55
2022/07/23 04:29:46;;;;;;;2.70;2.10;;;16.50;99.90;;;;;;5036260;28;20273;-55
2022/07/23 04:32:15;;;;;;;3.27;2.33;;;16.50;99.90;;;;;;5034711;28;20735;-55
2022/07/23 04:34:43;;;;;;;2.77;2.03;;;16.50;99.90;;;;;;5055900;28;20269;-55
2022/07/23 04:37:11;;;;;;;3.00;2.23;;;16.50;99.90;;;;;;5072106;28;20231;-55
2022/07/23 04:39:40;;;;;;;4.10;2.40;;;16.60;99.90;;;;;;5058330;28;20230;-56
2022/07/23 04:42:08;;;;;;;3.13;2.23;;;16.50;99.90;;;;;;5054203;28;20240;-55
2022/07/23 04:44:36;;;;;;;7.20;2.77;;;16.60;99.90;;;;;;5055823;28;20265;-55
2022/07/23 04:47:07;;;;;;;2.87;2.20;;;16.60;99.90;;;;;;5054558;28;20285;-55
2022/07/23 04:49:36;;;;;;;3.87;3.00;;;16.50;99.90;;;;;;5054482;28;20293;-55
2022/07/23 04:52:05;;;;;;;4.80;2.57;;;16.50;99.90;;;;;;5054512;28;20248;-55
2022/07/23 04:54:33;;;;;;;2.73;2.47;;;16.60;99.90;;;;;;5054479;28;20228;-55
2022/07/23 04:57:02;;;;;;;3.33;2.37;;;16.60;99.90;;;;;;5054613;28;20223;-55
2022/07/23 04:59:31;;;;;;;2.70;2.23;;;16.60;99.90;;;;;;5054348;28;20277;-55
2022/07/23 05:02:04;;;;;;;4.17;2.40;;;16.60;99.90;;;;;;5054003;28;20571;-55
2022/07/23 05:04:34;;;;;;;4.10;2.37;;;16.60;99.90;;;;;;5054435;28;20244;-55
2022/07/23 05:07:03;;;;;;;3.23;2.10;;;16.70;99.90;;;;;;5054653;28;20680;-55
2022/07/23 05:09:32;;;;;;;2.93;2.13;;;16.70;99.90;;;;;;5052007;28;20232;-55
2022/07/23 05:12:00;;;;;;;4.97;2.40;;;16.70;99.90;;;;;;5055423;28;20216;-55
2022/07/23 05:14:28;;;;;;;3.13;2.00;;;16.70;99.90;;;;;;5054232;28;20251;-55
2022/07/23 05:16:56;;;;;;;3.57;1.97;;;16.70;99.90;;;;;;5054273;28;20576;-55
2022/07/23 05:19:25;;;;;;;3.63;2.30;;;16.70;99.90;;;;;;5053920;28;20231;-55
2022/07/23 05:21:55;;;;;;;2.57;1.90;;;16.80;99.90;;;;;;5054195;28;20698;-55
2022/07/23 05:24:24;;;;;;;3.63;1.70;;;16.80;99.90;;;;;;5055389;28;20220;-55
2022/07/23 05:26:52;;;;;;;3.40;1.80;;;16.80;99.90;;;;;;5048437;28;20239;-55
2022/07/23 05:29:22;;;;;;;2.83;2.00;;;16.80;99.90;;;;;;5053651;28;20224;-54
2022/07/23 05:31:50;;;;;;;3.30;1.90;;;16.80;99.90;;;;;;5054912;28;20236;-55
2022/07/23 05:34:18;;;;;;;2.30;2.10;;;16.80;99.90;;;;;;5053484;28;20721;-55
2022/07/23 05:36:48;;;;;;;2.10;1.80;;;16.80;99.90;;;;;;5053653;28;20224;-55
2022/07/23 05:39:18;;;;;;;2.67;1.77;;;16.80;99.90;;;;;;5054575;28;20553;-55
2022/07/23 05:41:47;;;;;;;2.77;1.80;;;16.80;99.90;;;;;;5051562;28;20642;-55
2022/07/23 05:44:15;;;;;;;2.17;1.70;;;16.70;99.90;;;;;;5053669;28;20228;-55
2022/07/23 05:46:44;;;;;;;2.20;1.30;;;16.60;99.90;;;;;;5053300;28;20236;-55
2022/07/23 05:49:18;;;;;;;2.77;1.40;;;16.60;99.90;;;;;;5054344;28;20261;-55
2022/07/23 05:52:09;;;;;;;1.97;1.30;;;16.60;99.90;;;;;;5052337;28;20603;-55
2022/07/23 05:54:56;;;;;;;2.93;1.53;;;16.50;99.90;;;;;;5050489;28;20216;-55
2022/07/23 05:57:24;;;;;;;1.67;1.30;;;16.50;99.90;;;;;;5053227;28;20250;-55
2022/07/23 05:59:53;;;;;;;2.53;1.80;;;16.40;99.90;;;;;;5053552;28;20545;-55
2022/07/23 06:02:21;;;;;;;2.47;1.53;;;16.50;99.90;;;;;;5054009;28;20260;-55
2022/07/23 06:04:49;;;;;;;2.30;2.00;;;16.50;99.90;;;;;;5054499;28;20295;-55
2022/07/23 06:07:30;;;;;;;1.87;1.67;;;16.50;99.90;;;;;;5053309;28;20238;-55
2022/07/23 06:09:59;;;;;;;1.70;1.60;;;16.60;99.90;;;;;;5052800;28;20239;-55
2022/07/23 06:12:28;;;;;;;3.40;1.83;;;16.70;99.90;;;;;;5051671;28;20529;-55
2022/07/23 06:14:56;;;;;;;2.67;1.30;;;16.80;99.90;;;;;;5052986;28;20220;-55
2022/07/23 06:17:24;;;;;;;1.93;1.30;;;17.00;99.90;;;;;;5053964;28;20216;-55
2022/07/23 06:19:53;;;;;;;2.43;1.67;;;17.20;99.90;;;;;;5054410;28;20220;-55
2022/07/23 06:22:22;;;;;;;3.80;1.70;;;17.40;99.90;;;;;;5042293;28;20264;-55
2022/07/23 06:24:51;;;;;;;2.83;1.50;;;17.60;99.90;;;;;;5049559;28;20237;-55
2022/07/23 06:27:22;;;;;;;1.53;1.40;;;17.80;99.90;;;;;;5063248;28;20220;-56
2022/07/23 06:29:53;;;;;;;2.27;1.50;;;17.80;99.90;;;;;;5052854;28;20613;-55
2022/07/23 06:32:21;;;;;;;1.90;1.20;;;17.80;99.90;;;;;;5085937;28;20318;-55
2022/07/23 06:34:50;;;;;;;1.67;1.10;;;17.80;99.90;;;;;;5054064;28;20220;-55
2022/07/23 06:37:18;;;;;;;2.27;1.57;;;17.80;99.90;;;;;;5053616;28;20227;-55
2022/07/23 06:39:47;;;;;;;2.63;1.43;;;17.80;99.90;;;;;;5051997;28;20591;-55
2022/07/23 06:42:15;;;;;;;2.87;1.33;;;17.90;99.90;;;;;;5047129;28;20732;-56
2022/07/23 06:44:46;;;;;;;2.70;1.60;;;17.90;99.90;;;;;;5051402;28;20701;-55
2022/07/23 06:47:17;;;;;;;1.63;1.20;;;18.00;99.90;;;;;;5049502;28;20231;-55
2022/07/23 06:49:46;;;;;;;1.40;1.20;;;18.00;99.90;;;;;;5079660;28;20735;-56
2022/07/23 06:52:14;;;;;;;3.37;1.50;;;17.90;99.90;;;;;;5041971;28;20277;-56
2022/07/23 06:54:42;;;;;;;1.67;1.10;;;17.80;99.90;;;;;;5043176;28;20235;-55
2022/07/23 06:57:10;;;;;;;3.20;1.50;;;17.70;99.90;;;;;;5044349;28;20208;-55
2022/07/23 06:59:40;;;;;;;2.10;1.20;;;17.70;99.90;;;;;;5044571;28;20229;-55
2022/07/23 07:02:10;;;;;;;1.97;1.20;;;17.80;99.90;;;;;;5050643;28;20286;-55
2022/07/23 07:04:38;;;;;;;1.60;1.20;;;18.00;99.90;;;;;;5051737;28;20550;-56
2022/07/23 07:07:06;;;;;;;2.07;1.10;;;18.20;99.90;;;;;;5053052;28;20290;-55
2022/07/23 07:09:34;;;;;;;2.80;1.00;;;18.30;99.90;;;;;;5054326;28;20316;-55
2022/07/23 07:12:03;;;;;;;1.73;0.90;;;18.40;99.90;;;;;;5052852;28;20247;-55
2022/07/23 07:14:31;;;;;;;1.83;0.83;;;18.90;99.90;;;;;;5053194;28;20271;-56
2022/07/23 07:16:59;;;;;;;0.70;0.70;;;19.30;99.90;;;;;;5053258;28;20765;-56
2022/07/23 07:19:28;;;;;;;1.03;0.73;;;19.50;99.90;;;;;;5053165;28;20758;-56
2022/07/23 07:21:57;;;;;;;0.73;0.70;;;19.40;99.90;;;;;;5053047;28;20267;-56
2022/07/23 07:24:25;;;;;;;1.43;0.60;;;19.20;99.90;;;;;;5052858;28;20287;-56
2022/07/23 07:27:00;;;;;;;1.93;0.60;;;19.00;99.90;;;;;;5049565;28;20242;-55
2022/07/23 07:29:28;;;;;;;2.07;0.67;;;18.80;99.90;;;;;;5052859;28;20701;-55
2022/07/23 07:31:57;;;;;;;0.87;0.60;;;18.70;99.90;;;;;;5052779;28;20693;-56
2022/07/23 07:34:25;;;;;;;1.47;0.57;;;18.70;99.90;;;;;;5053525;28;20582;-56
2022/07/23 07:36:54;;;;;;;1.50;0.60;;;18.70;99.90;;;;;;5053220;28;20240;-57
2022/07/23 07:39:22;;;;;;;0.70;0.60;;;18.70;99.90;;;;;;5057880;28;20368;-55
2022/07/23 07:41:50;;;;;;;1.40;0.60;;;18.50;99.90;;;;;;5053113;28;20264;-59
2022/07/23 07:44:19;;;;;;;0.90;0.50;;;18.60;99.90;;;;;;5034045;28;20260;-55
2022/07/23 07:46:47;;;;;;;2.00;0.60;;;18.70;99.90;;;;;;5053051;28;20254;-59
2022/07/23 07:49:17;;;;;;;1.33;0.60;;;19.00;99.90;;;;;;5057486;28;20316;-57
2022/07/23 07:51:49;;;;;;;1.13;0.63;;;19.20;99.90;;;;;;5057928;28;20722;-62
2022/07/23 07:54:20;;;;;;;1.43;0.70;;;19.40;99.90;;;;;;5063600;28;20682;-65
2022/07/23 07:56:48;;;;;;;1.97;0.90;;;19.50;99.90;;;;;;5064947;28;20268;-67
2022/07/23 07:59:16;;;;;;;1.10;0.67;;;19.80;99.90;;;;;;5062283;28;20243;-56
2022/07/23 08:01:44;;;;;;;1.00;0.60;;;20.20;99.90;;;;;;5059343;28;21515;-64
2022/07/23 08:04:12;;;;;;;1.27;0.70;;;20.50;99.90;;;;;;5062444;28;20248;-64
2022/07/23 08:06:41;;;;;;;2.03;0.63;;;20.60;99.90;;;;;;5060194;28;20637;-67
2022/07/23 08:09:09;;;;;;;2.00;0.77;;;20.80;99.90;;;;;;5061240;28;20744;-59
2022/07/23 08:11:38;;;;;;;1.20;0.60;;;21.40;99.90;;;;;;5065620;28;20632;-67
2022/07/23 08:14:06;;;;;;;1.40;0.80;;;22.00;99.90;;;;;;5063898;28;20243;-60
2022/07/23 08:16:34;;;;;;;1.47;0.60;;;22.20;99.90;;;;;;5061269;28;20231;-64
2022/07/23 08:19:23;;;;;;;2.50;0.70;;;22.10;99.90;;;;;;5060151;28;20272;-62
2022/07/23 08:21:51;;;;;;;0.70;0.60;;;21.90;99.90;;;;;;5061115;28;20222;-62
2022/07/23 08:24:19;;;;;;;1.23;0.80;;;21.60;99.90;;;;;;5061160;28;20296;-57
2022/07/23 08:26:48;;;;;;;2.00;0.60;;;21.60;99.90;;;;;;5061916;28;20321;-58
2022/07/23 08:29:16;;;;;;;3.47;0.80;;;21.60;99.90;;;;;;5043890;28;20250;-59
2022/07/23 08:31:45;;;;;;;1.60;0.65;;;21.50;99.90;;;;;;5060671;28;20514;-69
2022/07/23 08:34:13;;;;;;;2.37;0.60;;;21.40;99.90;;;;;;5064002;28;20679;-59
2022/07/23 08:36:41;;;;;;;1.83;0.73;;;21.10;99.90;;;;;;5059023;28;20233;-62
2022/07/23 08:39:09;;;;;;;1.93;0.70;;;21.20;99.90;;;;;;5061289;28;20278;-55
2022/07/23 08:41:41;;;;;;;1.13;0.70;;;21.60;99.90;;;;;;5056784;28;20325;-56
2022/07/23 08:44:11;;;;;;;1.10;0.60;;;21.90;99.90;;;;;;5056005;28;20263;-56
2022/07/23 08:46:40;;;;;;;2.00;0.60;;;21.80;99.90;;;;;;5055719;28;20270;-55
2022/07/23 08:49:12;;;;;;;1.67;0.60;;;21.90;99.90;;;;;;5055491;28;20235;-56
2022/07/23 08:51:41;;;;;;;3.93;0.80;;;22.50;99.90;;;;;;5054031;28;20251;-55
2022/07/23 08:54:09;;;;;;;1.90;0.57;;;22.40;99.90;;;;;;5055028;28;20250;-55
2022/07/23 08:56:37;;;;;;;1.57;0.53;;;22.30;99.90;;;;;;5053000;28;20817;-55
2022/07/23 08:59:05;;;;;;;0.87;0.60;;;21.80;99.90;;;;;;5055647;28;20303;-56
2022/07/23 09:01:34;;;;;;;3.37;0.67;;;21.40;99.90;;;;;;5054931;28;20321;-56
2022/07/23 09:04:03;;;;;;;1.27;0.60;;;20.70;99.90;;;;;;5055597;28;20691;-55
2022/07/23 09:06:31;;;;;;;0.93;0.63;;;20.20;99.90;;;;;;5055347;28;20281;-55
2022/07/23 09:09:17;;;;;;;0.57;0.50;;;19.80;99.90;;;;;;5043195;28;20231;-56
2022/07/23 09:11:47;;;;;;;0.90;0.47;;;19.40;99.90;;;;;;5038451;28;20388;-57
2022/07/23 09:14:15;;;;;;;1.77;0.40;;;19.10;99.90;;;;;;5040902;28;20744;-57
2022/07/23 09:16:45;;;;;;;0.50;0.30;;;19.00;99.90;;;;;;5040577;28;20346;-56
2022/07/23 09:19:13;;;;;;;2.33;0.80;;;19.00;99.90;;;;;;5037102;28;20898;-57
2022/07/23 09:21:42;;;;;;;1.30;0.57;;;19.10;99.90;;;;;;5044097;28;20710;-57
2022/07/23 09:24:12;;;;;;;0.30;0.30;;;19.30;99.90;;;;;;5045884;28;20715;-55
2022/07/23 09:26:41;;;;;;;0.70;0.50;;;19.50;99.90;;;;;;5044795;28;20783;-55
2022/07/23 09:29:12;;;;;;;0.90;0.50;;;19.70;99.90;;;;;;5040338;28;20331;-55
2022/07/23 09:31:48;;;;;;;1.70;0.50;;;20.00;99.90;;;;;;5040523;28;20935;-56
2022/07/23 09:34:21;;;;;;;2.20;0.70;;;20.40;99.90;;;;;;5040372;28;20702;-56
2022/07/23 09:36:53;;;;;;;0.97;0.60;;;20.70;99.90;;;;;;5039951;28;20324;-56
2022/07/23 09:39:28;;;;;;;2.17;0.50;;;20.90;99.90;;;;;;5037292;28;20231;-56
2022/07/23 09:41:56;;;;;;;0.63;0.47;;;20.70;99.90;;;;;;5040247;28;20317;-57
2022/07/23 09:44:25;;;;;;;1.10;0.47;;;20.90;99.90;;;;;;5039661;28;21381;-57
2022/07/23 09:47:01;;;;;;;0.60;0.50;;;21.20;99.90;;;;;;5040491;28;20235;-57
2022/07/23 09:49:30;;;;;;;1.17;0.50;;;21.50;99.90;;;;;;5037274;28;20235;-56
2022/07/23 09:52:01;;;;;;;0.50;0.30;;;21.90;99.90;;;;;;5039675;28;20349;-56
2022/07/23 09:54:35;;;;;;;0.93;0.50;;;22.20;99.90;;;;;;5041500;28;20642;-56
2022/07/23 09:57:07;;;;;;;1.87;0.50;;;22.40;99.90;;;;;;5045795;28;20239;-58
2022/07/23 09:59:37;;;;;;;1.20;0.50;;;22.40;99.90;;;;;;5043341;28;20614;-55
2022/07/23 10:02:10;;;;;;;0.73;0.50;;;22.60;99.90;;;;;;5044308;28;20661;-57
2022/07/23 10:04:54;;;;;;;1.13;0.40;;;22.80;99.90;;;;;;5044325;28;20259;-56
2022/07/23 10:07:35;;;;;;;1.07;0.50;;;23.10;99.90;;;;;;5040271;28;20325;-58
2022/07/23 10:10:23;;;;;;;2.50;0.33;;;23.10;99.90;;;;;;5040142;28;20297;-56
2022/07/23 10:16:12;;;;;;;1.23;0.40;;;22.10;99.90;;;;;;5038164;28;20227;-58
2022/07/23 10:18:47;;;;;;;1.30;0.47;;;22.10;99.90;;;;;;5036128;28;20289;-58
2022/07/23 10:21:24;;;;;;;0.97;0.50;;;21.90;99.90;;;;;;5039528;28;20224;-57
2022/07/23 10:24:10;;;;;;;1.37;0.53;;;22.00;99.90;;;;;;5040216;28;20331;-57
2022/07/23 10:26:48;;;;;;;0.83;0.50;;;22.30;99.90;;;;;;5040211;28;20223;-55
2022/07/23 10:29:33;;;;;;;0.63;0.40;;;22.50;99.90;;;;;;5036681;28;20328;-56
2022/07/23 10:32:09;;;;;;;0.93;0.30;;;22.60;99.90;;;;;;5039571;28;20557;-58
2022/07/23 10:34:45;;;;;;;1.27;0.40;;;22.90;99.90;;;;;;5040277;28;20575;-58
2022/07/23 10:37:19;;;;;;;1.10;0.30;;;23.70;99.90;;;;;;5038584;28;20315;-57
2022/07/23 10:39:49;;;;;;;0.87;0.33;;;23.80;99.90;;;;;;5038424;28;20239;-58
2022/07/23 10:42:18;;;;;;;2.97;0.60;;;23.60;99.90;;;;;;5042514;28;20277;-57
2022/07/23 10:44:48;;;;;;;1.77;0.50;;;23.30;99.90;;;;;;5041576;28;21251;-56
2022/07/23 10:47:41;;;;;;;0.73;0.37;;;23.00;99.90;;;;;;5038899;28;20238;-55
2022/07/23 10:50:21;;;;;;;0.87;0.47;;;22.90;99.90;;;;;;5040579;28;20248;-57
2022/07/23 10:53:09;;;;;;;0.60;0.50;;;22.70;99.90;;;;;;5038694;28;20247;-57
2022/07/23 10:55:42;;;;;;;1.97;0.60;;;22.60;99.90;;;;;;5038912;28;20321;-58
2022/07/23 10:58:10;;;;;;;2.07;0.70;;;22.40;99.90;;;;;;5036148;28;20321;-56
2022/07/23 11:00:39;;;;;;;1.13;0.50;;;22.70;99.90;;;;;;5043330;28;20236;-56
2022/07/23 11:03:36;;;;;;;1.10;0.60;;;22.80;99.90;;;;;;5053444;28;20224;-56
2022/07/23 11:06:07;;;;;;;1.17;0.60;;;23.00;99.90;;;;;;5052915;28;20220;-56
2022/07/23 11:08:35;;;;;;;3.03;0.60;;;23.10;99.90;;;;;;5055129;28;20256;-57
2022/07/23 11:11:11;;;;;;;1.43;0.70;;;22.90;99.90;;;;;;5053036;28;20236;-56
2022/07/23 11:13:42;;;;;;;1.90;0.80;;;22.80;99.90;;;;;;5052688;28;20658;-55
2022/07/23 11:16:24;;;;;;;1.60;0.60;;;22.50;99.90;;;;;;5044866;28;20307;-56
2022/07/23 11:19:06;;;;;;;3.20;0.73;;;22.30;99.90;;;;;;5052825;28;20242;-55
2022/07/23 11:21:52;;;;;;;0.67;0.57;;;22.40;99.90;;;;;;5038536;28;20331;-55
2022/07/23 11:24:22;;;;;;;1.53;0.80;;;22.60;99.90;;;;;;5044882;28;20282;-55
2022/07/23 11:27:09;;;;;;;1.90;0.60;;;22.90;99.90;;;;;;5053463;28;20223;-56
2022/07/23 11:29:48;;;;;;;1.60;0.93;;;23.10;99.90;;;;;;5050221;28;20222;-56
2022/07/23 11:32:42;;;;;;;1.90;0.90;;;23.40;99.90;;;;;;5048058;28;20236;-56
2022/07/23 11:35:21;;;;;;;1.27;0.80;;;23.50;99.90;;;;;;5039419;28;20744;-56
2022/07/23 11:37:53;;;;;;;1.50;0.80;;;23.10;99.90;;;;;;5057996;28;20227;-56
2022/07/23 11:40:22;;;;;;;1.23;0.90;;;23.00;99.90;;;;;;5052473;28;20344;-56
2022/07/23 11:42:58;;;;;;;1.40;0.80;;;22.90;99.90;;;;;;5058448;28;20727;-55
2022/07/23 11:45:34;;;;;;;3.07;0.77;;;22.90;99.90;;;;;;5052559;28;20705;-56
2022/07/23 11:48:02;;;;;;;1.07;0.73;;;22.90;99.90;;;;;;5052791;28;20262;-56
2022/07/23 11:50:30;;;;;;;1.43;0.70;;;22.90;99.90;;;;;;5048948;28;20235;-56
2022/07/23 11:53:01;;;;;;;1.73;0.90;;;22.80;99.90;;;;;;5058804;28;20323;-55
2022/07/23 11:55:29;;;;;;;1.43;0.70;;;22.30;99.90;;;;;;5052596;28;20227;-56
2022/07/23 11:57:57;;;;;;;1.03;0.90;;;22.30;99.90;;;;;;5052920;28;20234;-55
2022/07/23 12:00:29;;;;;;;1.60;0.80;;;22.20;99.90;;;;;;5049075;28;20293;-56
2022/07/23 12:03:00;;;;;;;1.47;0.80;;;22.30;99.90;;;;;;5048011;28;20227;-55
2022/07/23 12:05:31;;;;;;;1.30;0.80;;;22.40;99.90;;;;;;5048753;28;20223;-56
2022/07/23 12:08:02;;;;;;;1.70;0.80;;;22.30;99.90;;;;;;5053388;28;20368;-56
2022/07/23 12:10:35;;;;;;;2.33;0.60;;;22.10;99.90;;;;;;5049153;28;20242;-55
2022/07/23 12:13:04;;;;;;;1.47;0.80;;;21.90;99.90;;;;;;5056020;28;20277;-56
2022/07/23 12:15:37;;;;;;;0.93;0.63;;;21.80;99.90;;;;;;5049828;28;20289;-55
2022/07/23 12:18:07;;;;;;;2.20;1.10;;;21.80;99.90;;;;;;5058070;28;20322;-56
2022/07/23 12:20:37;;;;;;;3.30;0.80;;;21.80;99.90;;;;;;5056819;28;20215;-55
2022/07/23 12:23:08;;;;;;;1.03;0.60;;;21.90;99.90;;;;;;5060272;28;20244;-56
2022/07/23 12:25:37;;;;;;;3.03;0.90;;;22.00;99.90;;;;;;5055623;28;20323;-56
2022/07/23 12:28:08;;;;;;;2.60;0.80;;;22.10;99.90;;;;;;5051854;28;20251;-55
2022/07/23 12:30:40;;;;;;;2.60;0.70;;;22.10;99.90;;;;;;5051491;28;20249;-56
2022/07/23 12:33:10;;;;;;;1.67;0.80;;;22.20;99.90;;;;;;5052436;28;20271;-56
2022/07/23 12:35:41;;;;;;;3.03;0.80;;;22.40;99.90;;;;;;5052120;28;20319;-55
2022/07/23 12:38:11;;;;;;;2.23;0.70;;;22.70;99.90;;;;;;5051782;28;20315;-56
2022/07/23 12:40:44;;;;;;;1.57;0.77;;;22.90;99.90;;;;;;5052036;28;20338;-55
2022/07/23 12:43:20;;;;;;;1.70;0.70;;;22.80;99.90;;;;;;5053061;28;20315;-55
2022/07/23 12:45:51;;;;;;;1.60;0.73;;;22.70;99.90;;;;;;5055584;28;20739;-55
2022/07/23 12:48:22;;;;;;;2.63;1.00;;;22.40;99.90;;;;;;5055906;28;20302;-55
2022/07/23 12:50:54;;;;;;;3.23;0.70;;;22.20;99.90;;;;;;5055779;28;20737;-55
2022/07/23 12:53:25;;;;;;;3.63;0.82;;;22.00;99.90;;;;;;5061498;28;20480;-55
2022/07/23 12:56:01;;;;;;;3.73;1.00;;;21.90;99.90;;;;;;5057629;28;20314;-56
2022/07/23 12:58:47;;;;;;;1.97;0.80;;;21.50;99.90;;;;;;5057237;28;20234;-56
2022/07/23 13:01:31;;;;;;;1.37;0.70;;;21.60;99.90;;;;;;5065279;28;20687;-57
2022/07/23 13:04:03;;;;;;;1.93;1.00;;;21.80;99.90;;;;;;5055786;28;20237;-56
2022/07/23 13:06:42;;;;;;;2.67;0.80;;;21.90;99.90;;;;;;5056154;28;20311;-57
2022/07/23 13:09:34;;;;;;;1.33;0.80;;;22.00;99.90;;;;;;5056276;28;20224;-56